sensor_id;sensor_type;location;lat;lon;timestamp;P1;durP1;ratioP1;P2;durP2;ratioP2
36137;SDS011;22194;50.046;21.954;2022-08-19T00:00:25;28.10;;;16.50;;
36137;SDS011;22194;50.046;21.954;2022-08-19T00:03:05;22.10;;;13.90;;
36137;SDS011;22194;50.046;21.954;2022-08-19T00:05:34;26.60;;;14.90;;
36137;SDS011;22194;50.046;21.954;2022-08-19T00:08:03;22.90;;;13.70;;
36137;SDS011;22194;50.046;21.954;2022-08-19T00:10:31;23.80;;;14.40;;
36137;SDS011;22194;50.046;21.954;2022-08-19T00:13:01;22.50;;;14.70;;
36137;SDS011;22194;50.046;21.954;2022-08-19T00:15:29;22.80;;;14.00;;
36137;SDS011;22194;50.046;21.954;2022-08-19T00:17:57;30.10;;;15.90;;
36137;SDS011;22194;50.046;21.954;2022-08-19T00:20:26;23.60;;;13.70;;
36137;SDS011;22194;50.046;21.954;2022-08-19T00:22:54;23.50;;;13.80;;
36137;SDS011;22194;50.046;21.954;2022-08-19T00:25:23;24.30;;;14.40;;
36137;SDS011;22194;50.046;21.954;2022-08-19T00:27:57;25.90;;;15.20;;
36137;SDS011;22194;50.046;21.954;2022-08-19T00:30:27;24.20;;;14.90;;
36137;SDS011;22194;50.046;21.954;2022-08-19T00:32:56;24.20;;;14.30;;
36137;SDS011;22194;50.046;21.954;2022-08-19T00:35:24;24.00;;;15.00;;
36137;SDS011;22194;50.046;21.954;2022-08-19T00:37:55;31.70;;;14.80;;
36137;SDS011;22194;50.046;21.954;2022-08-19T00:40:24;23.30;;;14.60;;
36137;SDS011;22194;50.046;21.954;2022-08-19T00:42:53;26.00;;;14.90;;
36137;SDS011;22194;50.046;21.954;2022-08-19T00:45:23;26.20;;;14.20;;
36137;SDS011;22194;50.046;21.954;2022-08-19T00:47:53;26.70;;;15.20;;
36137;SDS011;22194;50.046;21.954;2022-08-19T00:50:22;26.90;;;15.40;;
36137;SDS011;22194;50.046;21.954;2022-08-19T00:52:51;24.10;;;15.80;;
36137;SDS011;22194;50.046;21.954;2022-08-19T00:55:21;22.90;;;15.00;;
36137;SDS011;22194;50.046;21.954;2022-08-19T00:57:57;25.50;;;15.10;;
36137;SDS011;22194;50.046;21.954;2022-08-19T01:00:37;22.20;;;14.80;;
36137;SDS011;22194;50.046;21.954;2022-08-19T01:03:10;23.90;;;14.40;;
36137;SDS011;22194;50.046;21.954;2022-08-19T01:05:47;23.90;;;14.70;;
36137;SDS011;22194;50.046;21.954;2022-08-19T01:08:18;22.60;;;14.50;;
36137;SDS011;22194;50.046;21.954;2022-08-19T01:10:52;25.30;;;14.80;;
36137;SDS011;22194;50.046;21.954;2022-08-19T01:13:25;24.20;;;14.50;;
36137;SDS011;22194;50.046;21.954;2022-08-19T01:16:17;23.00;;;14.60;;
36137;SDS011;22194;50.046;21.954;2022-08-19T01:18:47;26.20;;;15.70;;
36137;SDS011;22194;50.046;21.954;2022-08-19T01:21:34;27.00;;;16.40;;
36137;SDS011;22194;50.046;21.954;2022-08-19T01:24:08;24.70;;;14.90;;
36137;SDS011;22194;50.046;21.954;2022-08-19T01:26:40;23.30;;;13.90;;
36137;SDS011;22194;50.046;21.954;2022-08-19T01:29:13;23.10;;;15.80;;
36137;SDS011;22194;50.046;21.954;2022-08-19T01:31:41;24.50;;;14.60;;
36137;SDS011;22194;50.046;21.954;2022-08-19T01:34:09;29.90;;;15.60;;
36137;SDS011;22194;50.046;21.954;2022-08-19T01:36:42;24.30;;;15.20;;
36137;SDS011;22194;50.046;21.954;2022-08-19T01:39:14;25.40;;;15.60;;
36137;SDS011;22194;50.046;21.954;2022-08-19T01:41:49;25.00;;;15.50;;
36137;SDS011;22194;50.046;21.954;2022-08-19T01:44:19;23.30;;;15.40;;
36137;SDS011;22194;50.046;21.954;2022-08-19T01:46:51;27.60;;;16.80;;
36137;SDS011;22194;50.046;21.954;2022-08-19T01:49:20;25.70;;;16.40;;
36137;SDS011;22194;50.046;21.954;2022-08-19T01:51:50;23.00;;;15.80;;
36137;SDS011;22194;50.046;21.954;2022-08-19T01:54:18;23.40;;;15.30;;
36137;SDS011;22194;50.046;21.954;2022-08-19T01:56:56;21.30;;;13.90;;
36137;SDS011;22194;50.046;21.954;2022-08-19T01:59:27;23.80;;;15.40;;
36137;SDS011;22194;50.046;21.954;2022-08-19T02:01:56;24.30;;;14.90;;
36137;SDS011;22194;50.046;21.954;2022-08-19T02:04:24;23.80;;;14.60;;
36137;SDS011;22194;50.046;21.954;2022-08-19T02:06:53;22.60;;;14.40;;
36137;SDS011;22194;50.046;21.954;2022-08-19T02:09:21;25.90;;;15.10;;
36137;SDS011;22194;50.046;21.954;2022-08-19T02:11:49;24.20;;;15.10;;
36137;SDS011;22194;50.046;21.954;2022-08-19T02:14:17;27.80;;;15.50;;
36137;SDS011;22194;50.046;21.954;2022-08-19T02:16:45;24.40;;;14.70;;
36137;SDS011;22194;50.046;21.954;2022-08-19T02:19:13;26.90;;;14.20;;
36137;SDS011;22194;50.046;21.954;2022-08-19T02:21:41;22.70;;;15.30;;
36137;SDS011;22194;50.046;21.954;2022-08-19T02:24:09;22.40;;;14.80;;
36137;SDS011;22194;50.046;21.954;2022-08-19T02:26:37;23.60;;;15.20;;
36137;SDS011;22194;50.046;21.954;2022-08-19T02:29:05;24.40;;;15.30;;
36137;SDS011;22194;50.046;21.954;2022-08-19T02:31:33;25.20;;;14.90;;
36137;SDS011;22194;50.046;21.954;2022-08-19T02:34:00;24.30;;;16.10;;
36137;SDS011;22194;50.046;21.954;2022-08-19T02:36:28;25.40;;;15.50;;
36137;SDS011;22194;50.046;21.954;2022-08-19T02:38:57;22.60;;;15.50;;
36137;SDS011;22194;50.046;21.954;2022-08-19T02:41:28;25.40;;;15.90;;
36137;SDS011;22194;50.046;21.954;2022-08-19T02:43:58;24.90;;;14.80;;
36137;SDS011;22194;50.046;21.954;2022-08-19T02:46:48;27.00;;;15.30;;
36137;SDS011;22194;50.046;21.954;2022-08-19T02:49:19;24.20;;;16.00;;
36137;SDS011;22194;50.046;21.954;2022-08-19T02:51:47;21.60;;;14.30;;
36137;SDS011;22194;50.046;21.954;2022-08-19T02:54:15;23.50;;;15.40;;
36137;SDS011;22194;50.046;21.954;2022-08-19T02:56:43;24.80;;;14.90;;
36137;SDS011;22194;50.046;21.954;2022-08-19T02:59:13;23.70;;;14.50;;
36137;SDS011;22194;50.046;21.954;2022-08-19T03:01:41;25.60;;;15.70;;
36137;SDS011;22194;50.046;21.954;2022-08-19T03:04:11;24.40;;;15.10;;
36137;SDS011;22194;50.046;21.954;2022-08-19T03:06:42;27.00;;;16.10;;
36137;SDS011;22194;50.046;21.954;2022-08-19T03:09:11;23.00;;;15.30;;
36137;SDS011;22194;50.046;21.954;2022-08-19T03:11:40;22.50;;;15.40;;
36137;SDS011;22194;50.046;21.954;2022-08-19T03:14:08;24.20;;;15.60;;
36137;SDS011;22194;50.046;21.954;2022-08-19T03:16:41;24.40;;;15.30;;
36137;SDS011;22194;50.046;21.954;2022-08-19T03:19:15;23.00;;;15.60;;
36137;SDS011;22194;50.046;21.954;2022-08-19T03:21:45;24.00;;;16.00;;
36137;SDS011;22194;50.046;21.954;2022-08-19T03:24:14;26.70;;;15.60;;
36137;SDS011;22194;50.046;21.954;2022-08-19T03:26:44;25.70;;;16.00;;
36137;SDS011;22194;50.046;21.954;2022-08-19T03:29:16;25.00;;;15.90;;
36137;SDS011;22194;50.046;21.954;2022-08-19T03:31:59;25.00;;;16.10;;
36137;SDS011;22194;50.046;21.954;2022-08-19T03:34:32;28.70;;;16.20;;
36137;SDS011;22194;50.046;21.954;2022-08-19T03:37:04;27.90;;;17.30;;
36137;SDS011;22194;50.046;21.954;2022-08-19T03:39:36;24.90;;;16.30;;
36137;SDS011;22194;50.046;21.954;2022-08-19T03:42:05;25.30;;;16.50;;
36137;SDS011;22194;50.046;21.954;2022-08-19T03:44:53;26.10;;;17.20;;
36137;SDS011;22194;50.046;21.954;2022-08-19T03:47:21;27.30;;;17.80;;
36137;SDS011;22194;50.046;21.954;2022-08-19T03:49:50;27.40;;;18.70;;
36137;SDS011;22194;50.046;21.954;2022-08-19T03:52:17;28.30;;;19.00;;
36137;SDS011;22194;50.046;21.954;2022-08-19T03:54:45;29.90;;;19.70;;
36137;SDS011;22194;50.046;21.954;2022-08-19T03:57:13;27.90;;;19.60;;
36137;SDS011;22194;50.046;21.954;2022-08-19T03:59:41;29.60;;;20.00;;
36137;SDS011;22194;50.046;21.954;2022-08-19T04:02:10;32.00;;;19.90;;
36137;SDS011;22194;50.046;21.954;2022-08-19T04:04:41;28.00;;;17.10;;
36137;SDS011;22194;50.046;21.954;2022-08-19T04:07:11;27.60;;;17.60;;
36137;SDS011;22194;50.046;21.954;2022-08-19T04:09:48;28.40;;;17.00;;
36137;SDS011;22194;50.046;21.954;2022-08-19T04:12:16;27.60;;;16.80;;
36137;SDS011;22194;50.046;21.954;2022-08-19T04:14:45;24.80;;;16.30;;
36137;SDS011;22194;50.046;21.954;2022-08-19T04:17:13;25.80;;;16.40;;
36137;SDS011;22194;50.046;21.954;2022-08-19T04:19:41;25.30;;;16.80;;
36137;SDS011;22194;50.046;21.954;2022-08-19T04:22:10;26.80;;;17.10;;
36137;SDS011;22194;50.046;21.954;2022-08-19T04:24:39;28.00;;;16.80;;
36137;SDS011;22194;50.046;21.954;2022-08-19T04:27:07;25.70;;;16.90;;
36137;SDS011;22194;50.046;21.954;2022-08-19T04:29:35;27.90;;;17.60;;
36137;SDS011;22194;50.046;21.954;2022-08-19T04:32:02;26.20;;;16.00;;
36137;SDS011;22194;50.046;21.954;2022-08-19T04:34:36;28.90;;;17.30;;
36137;SDS011;22194;50.046;21.954;2022-08-19T04:37:25;24.50;;;14.50;;
36137;SDS011;22194;50.046;21.954;2022-08-19T04:40:03;25.80;;;16.30;;
36137;SDS011;22194;50.046;21.954;2022-08-19T04:42:51;26.50;;;16.80;;
36137;SDS011;22194;50.046;21.954;2022-08-19T04:45:21;28.10;;;17.10;;
36137;SDS011;22194;50.046;21.954;2022-08-19T04:47:53;26.20;;;17.70;;
36137;SDS011;22194;50.046;21.954;2022-08-19T04:50:26;24.90;;;16.70;;
36137;SDS011;22194;50.046;21.954;2022-08-19T04:52:54;24.60;;;17.10;;
36137;SDS011;22194;50.046;21.954;2022-08-19T04:55:24;27.50;;;18.40;;
36137;SDS011;22194;50.046;21.954;2022-08-19T04:57:54;26.20;;;17.30;;
36137;SDS011;22194;50.046;21.954;2022-08-19T05:00:23;27.40;;;19.30;;
36137;SDS011;22194;50.046;21.954;2022-08-19T05:02:51;28.40;;;19.00;;
36137;SDS011;22194;50.046;21.954;2022-08-19T05:05:19;29.90;;;20.00;;
36137;SDS011;22194;50.046;21.954;2022-08-19T05:07:48;30.30;;;19.80;;
36137;SDS011;22194;50.046;21.954;2022-08-19T05:10:16;29.40;;;20.10;;
36137;SDS011;22194;50.046;21.954;2022-08-19T05:12:44;29.40;;;19.60;;
36137;SDS011;22194;50.046;21.954;2022-08-19T05:15:12;29.00;;;17.90;;
36137;SDS011;22194;50.046;21.954;2022-08-19T05:17:40;26.70;;;17.40;;
36137;SDS011;22194;50.046;21.954;2022-08-19T05:20:28;25.40;;;17.10;;
36137;SDS011;22194;50.046;21.954;2022-08-19T05:23:14;23.00;;;16.00;;
36137;SDS011;22194;50.046;21.954;2022-08-19T05:25:49;28.40;;;16.60;;
36137;SDS011;22194;50.046;21.954;2022-08-19T05:28:19;27.50;;;16.30;;
36137;SDS011;22194;50.046;21.954;2022-08-19T05:30:47;29.20;;;19.10;;
36137;SDS011;22194;50.046;21.954;2022-08-19T05:33:18;27.70;;;16.70;;
36137;SDS011;22194;50.046;21.954;2022-08-19T05:35:46;26.40;;;15.80;;
36137;SDS011;22194;50.046;21.954;2022-08-19T05:38:16;27.20;;;17.00;;
36137;SDS011;22194;50.046;21.954;2022-08-19T05:40:45;27.60;;;16.10;;
36137;SDS011;22194;50.046;21.954;2022-08-19T05:43:16;28.50;;;16.00;;
36137;SDS011;22194;50.046;21.954;2022-08-19T05:45:44;24.90;;;15.90;;
36137;SDS011;22194;50.046;21.954;2022-08-19T05:48:13;27.40;;;15.80;;
36137;SDS011;22194;50.046;21.954;2022-08-19T05:50:41;26.70;;;15.00;;
36137;SDS011;22194;50.046;21.954;2022-08-19T05:53:09;24.60;;;15.20;;
36137;SDS011;22194;50.046;21.954;2022-08-19T05:55:37;25.90;;;15.80;;
36137;SDS011;22194;50.046;21.954;2022-08-19T05:58:08;25.20;;;15.50;;
36137;SDS011;22194;50.046;21.954;2022-08-19T06:00:36;24.00;;;14.80;;
36137;SDS011;22194;50.046;21.954;2022-08-19T06:03:04;23.50;;;14.40;;
36137;SDS011;22194;50.046;21.954;2022-08-19T06:05:39;26.80;;;14.40;;
36137;SDS011;22194;50.046;21.954;2022-08-19T06:08:18;25.90;;;14.60;;
36137;SDS011;22194;50.046;21.954;2022-08-19T06:13:47;23.20;;;14.30;;
36137;SDS011;22194;50.046;21.954;2022-08-19T06:16:27;28.30;;;14.40;;
36137;SDS011;22194;50.046;21.954;2022-08-19T06:18:56;25.80;;;13.60;;
36137;SDS011;22194;50.046;21.954;2022-08-19T06:21:25;22.20;;;13.90;;
36137;SDS011;22194;50.046;21.954;2022-08-19T06:23:57;24.00;;;13.80;;
36137;SDS011;22194;50.046;21.954;2022-08-19T06:26:26;22.20;;;12.50;;
36137;SDS011;22194;50.046;21.954;2022-08-19T06:28:55;21.60;;;12.60;;
36137;SDS011;22194;50.046;21.954;2022-08-19T06:31:25;31.20;;;13.50;;
36137;SDS011;22194;50.046;21.954;2022-08-19T06:33:54;23.50;;;11.90;;
36137;SDS011;22194;50.046;21.954;2022-08-19T06:36:24;22.20;;;11.20;;
36137;SDS011;22194;50.046;21.954;2022-08-19T06:38:55;22.00;;;12.00;;
36137;SDS011;22194;50.046;21.954;2022-08-19T06:41:26;23.30;;;12.10;;
36137;SDS011;22194;50.046;21.954;2022-08-19T06:43:55;23.00;;;11.30;;
36137;SDS011;22194;50.046;21.954;2022-08-19T06:46:24;27.60;;;11.90;;
36137;SDS011;22194;50.046;21.954;2022-08-19T06:48:53;21.20;;;10.80;;
36137;SDS011;22194;50.046;21.954;2022-08-19T06:51:22;25.50;;;11.80;;
36137;SDS011;22194;50.046;21.954;2022-08-19T06:53:55;22.90;;;11.00;;
36137;SDS011;22194;50.046;21.954;2022-08-19T06:56:24;21.00;;;11.50;;
36137;SDS011;22194;50.046;21.954;2022-08-19T06:59:05;24.60;;;11.60;;
36137;SDS011;22194;50.046;21.954;2022-08-19T07:01:37;22.40;;;12.40;;
36137;SDS011;22194;50.046;21.954;2022-08-19T07:04:07;23.20;;;11.30;;
36137;SDS011;22194;50.046;21.954;2022-08-19T07:06:38;19.10;;;10.30;;
36137;SDS011;22194;50.046;21.954;2022-08-19T07:09:12;20.90;;;10.50;;
36137;SDS011;22194;50.046;21.954;2022-08-19T07:11:45;19.20;;;10.80;;
36137;SDS011;22194;50.046;21.954;2022-08-19T07:14:16;19.70;;;11.00;;
36137;SDS011;22194;50.046;21.954;2022-08-19T07:16:47;21.20;;;10.00;;
36137;SDS011;22194;50.046;21.954;2022-08-19T07:19:17;19.00;;;9.90;;
36137;SDS011;22194;50.046;21.954;2022-08-19T07:21:47;19.60;;;9.00;;
36137;SDS011;22194;50.046;21.954;2022-08-19T07:24:22;18.10;;;8.80;;
36137;SDS011;22194;50.046;21.954;2022-08-19T07:26:52;20.30;;;8.90;;
36137;SDS011;22194;50.046;21.954;2022-08-19T07:29:22;16.50;;;9.10;;
36137;SDS011;22194;50.046;21.954;2022-08-19T07:31:55;16.40;;;8.20;;
36137;SDS011;22194;50.046;21.954;2022-08-19T07:34:28;18.10;;;8.60;;
36137;SDS011;22194;50.046;21.954;2022-08-19T07:36:57;14.40;;;7.40;;
36137;SDS011;22194;50.046;21.954;2022-08-19T07:39:30;15.80;;;7.60;;
36137;SDS011;22194;50.046;21.954;2022-08-19T07:42:00;15.10;;;7.60;;
36137;SDS011;22194;50.046;21.954;2022-08-19T07:44:33;14.50;;;7.90;;
36137;SDS011;22194;50.046;21.954;2022-08-19T07:47:02;15.70;;;8.10;;
36137;SDS011;22194;50.046;21.954;2022-08-19T07:49:31;13.30;;;7.10;;
36137;SDS011;22194;50.046;21.954;2022-08-19T07:52:02;14.70;;;7.30;;
36137;SDS011;22194;50.046;21.954;2022-08-19T07:54:34;15.50;;;7.10;;
36137;SDS011;22194;50.046;21.954;2022-08-19T07:57:04;12.80;;;6.70;;
36137;SDS011;22194;50.046;21.954;2022-08-19T07:59:32;18.50;;;6.90;;
36137;SDS011;22194;50.046;21.954;2022-08-19T08:02:00;15.90;;;6.90;;
36137;SDS011;22194;50.046;21.954;2022-08-19T08:04:30;15.00;;;7.00;;
36137;SDS011;22194;50.046;21.954;2022-08-19T08:07:17;12.20;;;6.30;;
36137;SDS011;22194;50.046;21.954;2022-08-19T08:10:04;17.10;;;7.00;;
36137;SDS011;22194;50.046;21.954;2022-08-19T08:12:47;12.80;;;6.10;;
36137;SDS011;22194;50.046;21.954;2022-08-19T08:15:36;13.80;;;6.00;;
36137;SDS011;22194;50.046;21.954;2022-08-19T08:18:10;14.00;;;6.10;;
36137;SDS011;22194;50.046;21.954;2022-08-19T08:20:39;13.20;;;6.30;;
36137;SDS011;22194;50.046;21.954;2022-08-19T08:23:06;11.20;;;5.50;;
36137;SDS011;22194;50.046;21.954;2022-08-19T08:25:49;14.70;;;6.50;;
36137;SDS011;22194;50.046;21.954;2022-08-19T08:28:18;13.00;;;6.40;;
36137;SDS011;22194;50.046;21.954;2022-08-19T08:30:47;15.50;;;6.40;;
36137;SDS011;22194;50.046;21.954;2022-08-19T08:33:21;13.40;;;6.30;;
36137;SDS011;22194;50.046;21.954;2022-08-19T08:36:01;12.00;;;6.60;;
36137;SDS011;22194;50.046;21.954;2022-08-19T08:38:32;13.90;;;6.70;;
36137;SDS011;22194;50.046;21.954;2022-08-19T08:41:16;12.20;;;6.70;;
36137;SDS011;22194;50.046;21.954;2022-08-19T08:43:50;11.30;;;6.80;;
36137;SDS011;22194;50.046;21.954;2022-08-19T08:49:33;12.50;;;6.80;;
36137;SDS011;22194;50.046;21.954;2022-08-19T08:52:24;11.90;;;6.70;;
36137;SDS011;22194;50.046;21.954;2022-08-19T08:55:00;12.40;;;6.20;;
36137;SDS011;22194;50.046;21.954;2022-08-19T08:57:39;12.50;;;7.20;;
36137;SDS011;22194;50.046;21.954;2022-08-19T09:00:20;12.90;;;6.50;;
36137;SDS011;22194;50.046;21.954;2022-08-19T09:02:55;12.40;;;6.80;;
36137;SDS011;22194;50.046;21.954;2022-08-19T09:05:26;12.50;;;6.70;;
36137;SDS011;22194;50.046;21.954;2022-08-19T09:08:16;13.00;;;6.90;;
36137;SDS011;22194;50.046;21.954;2022-08-19T09:10:56;16.50;;;6.60;;
36137;SDS011;22194;50.046;21.954;2022-08-19T09:16:09;16.30;;;7.00;;
36137;SDS011;22194;50.046;21.954;2022-08-19T09:18:50;12.50;;;6.70;;
36137;SDS011;22194;50.046;21.954;2022-08-19T09:21:22;12.90;;;6.40;;
36137;SDS011;22194;50.046;21.954;2022-08-19T09:24:01;11.90;;;6.60;;
36137;SDS011;22194;50.046;21.954;2022-08-19T09:26:30;15.70;;;7.20;;
36137;SDS011;22194;50.046;21.954;2022-08-19T09:29:21;14.20;;;6.80;;
36137;SDS011;22194;50.046;21.954;2022-08-19T09:31:49;15.10;;;6.50;;
36137;SDS011;22194;50.046;21.954;2022-08-19T09:34:17;13.20;;;6.80;;
36137;SDS011;22194;50.046;21.954;2022-08-19T09:36:49;13.20;;;6.20;;
36137;SDS011;22194;50.046;21.954;2022-08-19T09:39:21;14.80;;;7.00;;
36137;SDS011;22194;50.046;21.954;2022-08-19T09:41:50;11.90;;;6.30;;
36137;SDS011;22194;50.046;21.954;2022-08-19T09:44:19;14.00;;;6.70;;
36137;SDS011;22194;50.046;21.954;2022-08-19T09:46:48;14.60;;;6.30;;
36137;SDS011;22194;50.046;21.954;2022-08-19T09:49:18;11.90;;;6.90;;
36137;SDS011;22194;50.046;21.954;2022-08-19T09:51:51;9.60;;;6.10;;
36137;SDS011;22194;50.046;21.954;2022-08-19T09:54:23;9.60;;;6.20;;
36137;SDS011;22194;50.046;21.954;2022-08-19T09:56:53;12.30;;;6.40;;
36137;SDS011;22194;50.046;21.954;2022-08-19T09:59:21;12.20;;;6.40;;
36137;SDS011;22194;50.046;21.954;2022-08-19T10:01:49;11.70;;;6.20;;
36137;SDS011;22194;50.046;21.954;2022-08-19T10:04:30;16.50;;;6.30;;
36137;SDS011;22194;50.046;21.954;2022-08-19T10:07:16;13.20;;;6.50;;
36137;SDS011;22194;50.046;21.954;2022-08-19T10:09:45;9.90;;;6.10;;
36137;SDS011;22194;50.046;21.954;2022-08-19T10:12:13;11.80;;;5.90;;
36137;SDS011;22194;50.046;21.954;2022-08-19T10:14:46;9.50;;;6.30;;
36137;SDS011;22194;50.046;21.954;2022-08-19T10:17:14;11.40;;;5.90;;
36137;SDS011;22194;50.046;21.954;2022-08-19T10:19:46;12.30;;;5.80;;
36137;SDS011;22194;50.046;21.954;2022-08-19T10:22:23;12.50;;;6.40;;
36137;SDS011;22194;50.046;21.954;2022-08-19T10:24:52;11.60;;;6.40;;
36137;SDS011;22194;50.046;21.954;2022-08-19T10:27:21;13.90;;;7.10;;
36137;SDS011;22194;50.046;21.954;2022-08-19T10:29:49;13.10;;;6.10;;
36137;SDS011;22194;50.046;21.954;2022-08-19T10:32:17;15.50;;;6.50;;
36137;SDS011;22194;50.046;21.954;2022-08-19T10:35:01;17.30;;;7.00;;
36137;SDS011;22194;50.046;21.954;2022-08-19T10:37:32;11.00;;;6.50;;
36137;SDS011;22194;50.046;21.954;2022-08-19T10:40:01;13.20;;;6.40;;
36137;SDS011;22194;50.046;21.954;2022-08-19T10:42:31;13.40;;;6.40;;
36137;SDS011;22194;50.046;21.954;2022-08-19T10:44:59;13.20;;;6.70;;
36137;SDS011;22194;50.046;21.954;2022-08-19T10:47:27;13.60;;;6.70;;
36137;SDS011;22194;50.046;21.954;2022-08-19T10:49:58;11.90;;;6.20;;
36137;SDS011;22194;50.046;21.954;2022-08-19T10:52:46;14.30;;;6.40;;
36137;SDS011;22194;50.046;21.954;2022-08-19T10:55:22;11.00;;;6.10;;
36137;SDS011;22194;50.046;21.954;2022-08-19T10:58:13;14.70;;;6.40;;
36137;SDS011;22194;50.046;21.954;2022-08-19T11:00:43;13.30;;;6.40;;
36137;SDS011;22194;50.046;21.954;2022-08-19T11:03:27;11.90;;;6.10;;
36137;SDS011;22194;50.046;21.954;2022-08-19T11:06:03;10.40;;;5.90;;
36137;SDS011;22194;50.046;21.954;2022-08-19T11:08:33;11.40;;;5.80;;
36137;SDS011;22194;50.046;21.954;2022-08-19T11:11:05;10.40;;;5.70;;
36137;SDS011;22194;50.046;21.954;2022-08-19T11:13:35;12.70;;;6.10;;
36137;SDS011;22194;50.046;21.954;2022-08-19T11:16:09;13.10;;;6.70;;
36137;SDS011;22194;50.046;21.954;2022-08-19T11:18:48;12.50;;;6.00;;
36137;SDS011;22194;50.046;21.954;2022-08-19T11:21:21;15.90;;;6.90;;
36137;SDS011;22194;50.046;21.954;2022-08-19T11:23:53;12.00;;;6.50;;
36137;SDS011;22194;50.046;21.954;2022-08-19T11:26:23;13.50;;;7.00;;
36137;SDS011;22194;50.046;21.954;2022-08-19T11:28:52;11.50;;;6.40;;
36137;SDS011;22194;50.046;21.954;2022-08-19T11:31:28;11.70;;;6.60;;
36137;SDS011;22194;50.046;21.954;2022-08-19T11:34:00;14.60;;;6.50;;
36137;SDS011;22194;50.046;21.954;2022-08-19T11:36:31;13.20;;;6.20;;
36137;SDS011;22194;50.046;21.954;2022-08-19T11:39:05;13.30;;;5.30;;
36137;SDS011;22194;50.046;21.954;2022-08-19T11:41:34;10.50;;;5.20;;
36137;SDS011;22194;50.046;21.954;2022-08-19T11:44:03;11.00;;;5.00;;
36137;SDS011;22194;50.046;21.954;2022-08-19T11:46:36;10.60;;;5.50;;
36137;SDS011;22194;50.046;21.954;2022-08-19T11:49:05;10.30;;;5.60;;
36137;SDS011;22194;50.046;21.954;2022-08-19T11:51:40;12.40;;;6.40;;
36137;SDS011;22194;50.046;21.954;2022-08-19T11:54:11;12.00;;;5.90;;
36137;SDS011;22194;50.046;21.954;2022-08-19T11:56:40;14.00;;;6.60;;
36137;SDS011;22194;50.046;21.954;2022-08-19T11:59:08;14.10;;;5.40;;
36137;SDS011;22194;50.046;21.954;2022-08-19T12:01:41;14.60;;;5.60;;
36137;SDS011;22194;50.046;21.954;2022-08-19T12:04:10;14.70;;;5.60;;
36137;SDS011;22194;50.046;21.954;2022-08-19T12:06:39;13.90;;;6.40;;
36137;SDS011;22194;50.046;21.954;2022-08-19T12:09:10;13.00;;;6.10;;
36137;SDS011;22194;50.046;21.954;2022-08-19T12:11:38;14.60;;;6.60;;
36137;SDS011;22194;50.046;21.954;2022-08-19T12:14:08;11.90;;;6.50;;
36137;SDS011;22194;50.046;21.954;2022-08-19T12:16:43;13.80;;;5.80;;
36137;SDS011;22194;50.046;21.954;2022-08-19T12:19:17;12.40;;;5.60;;
36137;SDS011;22194;50.046;21.954;2022-08-19T12:21:50;15.90;;;6.40;;
36137;SDS011;22194;50.046;21.954;2022-08-19T12:24:19;13.30;;;6.50;;
36137;SDS011;22194;50.046;21.954;2022-08-19T12:26:50;16.70;;;5.60;;
36137;SDS011;22194;50.046;21.954;2022-08-19T12:29:21;11.30;;;5.60;;
36137;SDS011;22194;50.046;21.954;2022-08-19T12:31:57;13.10;;;5.70;;
36137;SDS011;22194;50.046;21.954;2022-08-19T12:34:31;10.00;;;5.70;;
36137;SDS011;22194;50.046;21.954;2022-08-19T12:37:01;14.90;;;6.40;;
36137;SDS011;22194;50.046;21.954;2022-08-19T12:39:37;13.00;;;5.70;;
36137;SDS011;22194;50.046;21.954;2022-08-19T12:42:08;15.00;;;6.00;;
36137;SDS011;22194;50.046;21.954;2022-08-19T12:44:38;14.30;;;6.10;;
36137;SDS011;22194;50.046;21.954;2022-08-19T12:47:10;15.20;;;6.50;;
36137;SDS011;22194;50.046;21.954;2022-08-19T12:49:40;15.10;;;6.10;;
36137;SDS011;22194;50.046;21.954;2022-08-19T12:52:23;23.00;;;7.50;;
36137;SDS011;22194;50.046;21.954;2022-08-19T12:54:53;13.30;;;5.60;;
36137;SDS011;22194;50.046;21.954;2022-08-19T12:57:23;18.10;;;6.30;;
36137;SDS011;22194;50.046;21.954;2022-08-19T13:00:04;11.60;;;5.70;;
36137;SDS011;22194;50.046;21.954;2022-08-19T13:02:49;11.90;;;6.30;;
36137;SDS011;22194;50.046;21.954;2022-08-19T13:05:20;15.70;;;5.90;;
36137;SDS011;22194;50.046;21.954;2022-08-19T13:07:51;11.40;;;5.70;;
36137;SDS011;22194;50.046;21.954;2022-08-19T13:10:25;11.60;;;5.80;;
36137;SDS011;22194;50.046;21.954;2022-08-19T13:12:57;13.10;;;6.10;;
36137;SDS011;22194;50.046;21.954;2022-08-19T13:15:27;12.60;;;5.90;;
36137;SDS011;22194;50.046;21.954;2022-08-19T13:17:58;13.90;;;6.20;;
36137;SDS011;22194;50.046;21.954;2022-08-19T13:20:26;12.40;;;5.90;;
36137;SDS011;22194;50.046;21.954;2022-08-19T13:22:55;15.10;;;6.00;;
36137;SDS011;22194;50.046;21.954;2022-08-19T13:25:25;9.60;;;5.60;;
36137;SDS011;22194;50.046;21.954;2022-08-19T13:27:54;16.80;;;6.50;;
36137;SDS011;22194;50.046;21.954;2022-08-19T13:30:23;11.60;;;5.50;;
36137;SDS011;22194;50.046;21.954;2022-08-19T13:33:10;14.90;;;6.20;;
36137;SDS011;22194;50.046;21.954;2022-08-19T13:35:39;13.90;;;6.40;;
36137;SDS011;22194;50.046;21.954;2022-08-19T13:38:08;11.60;;;6.00;;
36137;SDS011;22194;50.046;21.954;2022-08-19T13:40:39;13.00;;;5.60;;
36137;SDS011;22194;50.046;21.954;2022-08-19T13:43:08;17.20;;;6.70;;
36137;SDS011;22194;50.046;21.954;2022-08-19T13:45:53;18.60;;;7.10;;
36137;SDS011;22194;50.046;21.954;2022-08-19T13:48:24;14.20;;;6.30;;
36137;SDS011;22194;50.046;21.954;2022-08-19T13:50:54;14.10;;;6.60;;
36137;SDS011;22194;50.046;21.954;2022-08-19T13:53:22;11.80;;;5.50;;
36137;SDS011;22194;50.046;21.954;2022-08-19T13:55:51;12.00;;;6.00;;
36137;SDS011;22194;50.046;21.954;2022-08-19T13:58:21;15.90;;;6.80;;
36137;SDS011;22194;50.046;21.954;2022-08-19T14:00:50;14.40;;;6.20;;
36137;SDS011;22194;50.046;21.954;2022-08-19T14:03:18;17.50;;;6.80;;
36137;SDS011;22194;50.046;21.954;2022-08-19T14:05:46;14.30;;;5.70;;
36137;SDS011;22194;50.046;21.954;2022-08-19T14:08:14;20.90;;;7.00;;
36137;SDS011;22194;50.046;21.954;2022-08-19T14:10:42;16.70;;;7.10;;
36137;SDS011;22194;50.046;21.954;2022-08-19T14:13:13;15.10;;;6.80;;
36137;SDS011;22194;50.046;21.954;2022-08-19T14:15:44;14.40;;;7.20;;
36137;SDS011;22194;50.046;21.954;2022-08-19T14:18:13;19.60;;;7.30;;
36137;SDS011;22194;50.046;21.954;2022-08-19T14:20:42;13.70;;;6.90;;
36137;SDS011;22194;50.046;21.954;2022-08-19T14:23:10;14.60;;;6.70;;
36137;SDS011;22194;50.046;21.954;2022-08-19T14:25:41;16.20;;;6.90;;
36137;SDS011;22194;50.046;21.954;2022-08-19T14:28:09;11.60;;;6.20;;
36137;SDS011;22194;50.046;21.954;2022-08-19T14:30:37;14.00;;;6.40;;
36137;SDS011;22194;50.046;21.954;2022-08-19T14:33:05;14.50;;;6.80;;
36137;SDS011;22194;50.046;21.954;2022-08-19T14:35:35;22.80;;;6.90;;
36137;SDS011;22194;50.046;21.954;2022-08-19T14:38:04;11.20;;;6.20;;
36137;SDS011;22194;50.046;21.954;2022-08-19T14:40:33;18.30;;;7.00;;
36137;SDS011;22194;50.046;21.954;2022-08-19T14:43:03;14.90;;;7.20;;
36137;SDS011;22194;50.046;21.954;2022-08-19T14:45:32;14.20;;;6.70;;
36137;SDS011;22194;50.046;21.954;2022-08-19T14:48:04;16.70;;;6.90;;
36137;SDS011;22194;50.046;21.954;2022-08-19T14:50:33;15.60;;;6.40;;